Time;durP1;ratioP1;P1;durP2;ratioP2;P2;SDS_P1;SDS_P2;PMS_P1;PMS_P2;Temp;Humidity;BMP_temperature;BMP_pressure;BME280_temperature;BME280_humidity;BME280_pressure;Samples;Min_cycle;Max_cycle;Signal;HPM_P1;HPM_P2
2022/07/16 00:03:48;;;;;;;2.80;2.60;;;;;;;;;;5051308;28;20048;-68
2022/07/16 00:06:14;;;;;;;3.35;2.20;;;;;;;;;;5051131;28;20133;-68
2022/07/16 00:08:41;;;;;;;4.35;2.53;;;;;;;;;;5050995;28;20052;-68
2022/07/16 00:11:07;;;;;;;3.30;2.28;;;;;;;;;;5054168;28;20493;-68
2022/07/16 00:13:34;;;;;;;3.22;2.40;;;;;;;;;;5054429;28;20060;-68
2022/07/16 00:16:01;;;;;;;2.53;2.33;;;;;;;;;;5053725;28;20060;-68
2022/07/16 00:21:12;;;;;;;3.05;2.58;;;;;;;;;;5053442;28;20084;-68
2022/07/16 00:23:38;;;;;;;3.45;2.20;;;;;;;;;;5054564;28;20041;-68
2022/07/16 00:26:05;;;;;;;2.50;2.30;;;;;;;;;;5054157;28;20057;-68
2022/07/16 00:28:31;;;;;;;2.67;2.28;;;;;;;;;;5054085;28;20052;-68
2022/07/16 00:30:58;;;;;;;2.53;2.33;;;;;;;;;;5054330;28;20492;-68
2022/07/16 00:33:25;;;;;;;2.67;2.35;;;;;;;;;;5054528;28;20063;-68
2022/07/16 00:35:52;;;;;;;2.57;2.37;;;;;;;;;;5054339;28;20040;-68
2022/07/16 00:38:18;;;;;;;2.55;2.35;;;;;;;;;;5053923;28;20696;-68
2022/07/16 00:40:45;;;;;;;2.58;2.38;;;;;;;;;;5054260;28;20053;-68
2022/07/16 00:43:12;;;;;;;2.78;2.35;;;;;;;;;;5054140;28;20192;-68
2022/07/16 00:45:39;;;;;;;3.40;2.50;;;;;;;;;;5054128;28;20095;-68
2022/07/16 00:48:05;;;;;;;2.87;2.30;;;;;;;;;;5053915;28;20075;-68
2022/07/16 00:50:33;;;;;;;3.53;2.90;;;;;;;;;;5053893;28;20107;-68
2022/07/16 00:53:00;;;;;;;4.10;2.97;;;;;;;;;;5054156;28;20281;-68
2022/07/16 00:55:27;;;;;;;3.72;2.75;;;;;;;;;;5053740;28;20099;-68
2022/07/16 00:57:54;;;;;;;2.63;2.43;;;;;;;;;;5041941;28;20044;-68
2022/07/16 01:00:21;;;;;;;2.35;2.20;;;;;;;;;;5053965;28;20057;-68
2022/07/16 01:02:47;;;;;;;2.67;2.47;;;;;;;;;;5053512;28;20144;-68
2022/07/16 01:05:14;;;;;;;3.03;2.60;;;;;;;;;;5053515;28;20102;-68
2022/07/16 01:07:42;;;;;;;3.58;2.35;;;;;;;;;;5053643;28;20452;-67
2022/07/16 01:10:09;;;;;;;2.45;2.20;;;;;;;;;;5053691;28;20049;-68
2022/07/16 01:12:36;;;;;;;2.80;2.50;;;;;;;;;;5053724;28;20053;-68
2022/07/16 01:15:03;;;;;;;2.55;2.17;;;;;;;;;;5053306;28;20347;-68
2022/07/16 01:17:29;;;;;;;3.00;2.45;;;;;;;;;;5053263;28;20469;-68
2022/07/16 01:19:56;;;;;;;4.80;2.20;;;;;;;;;;5053129;28;20049;-68
2022/07/16 01:22:24;;;;;;;2.45;2.10;;;;;;;;;;5053027;28;20110;-68
2022/07/16 01:24:51;;;;;;;2.45;2.22;;;;;;;;;;5053419;28;20432;-68
2022/07/16 01:27:18;;;;;;;3.03;2.47;;;;;;;;;;5053063;28;20049;-68
2022/07/16 01:29:45;;;;;;;2.47;2.30;;;;;;;;;;5053357;28;20053;-68
2022/07/16 01:32:11;;;;;;;2.20;2.00;;;;;;;;;;5053156;28;20049;-68
2022/07/16 01:34:38;;;;;;;3.17;2.50;;;;;;;;;;5053104;28;20060;-68
2022/07/16 01:37:06;;;;;;;2.80;2.60;;;;;;;;;;5046265;28;20538;-68
2022/07/16 01:39:34;;;;;;;2.50;2.30;;;;;;;;;;5052705;28;20095;-68
2022/07/16 01:42:02;;;;;;;2.17;2.03;;;;;;;;;;5052682;28;20099;-68
2022/07/16 01:44:29;;;;;;;2.58;2.28;;;;;;;;;;5052884;28;20057;-68
2022/07/16 01:46:56;;;;;;;3.03;2.72;;;;;;;;;;5052696;28;20094;-68
2022/07/16 01:49:23;;;;;;;2.63;2.33;;;;;;;;;;5052732;28;20049;-68
2022/07/16 01:51:49;;;;;;;2.80;2.28;;;;;;;;;;5052950;28;20381;-68
2022/07/16 01:54:16;;;;;;;2.45;2.25;;;;;;;;;;5052755;28;20053;-68
2022/07/16 01:56:42;;;;;;;2.75;2.50;;;;;;;;;;5052491;28;20623;-68
2022/07/16 01:59:09;;;;;;;4.57;2.47;;;;;;;;;;5052614;28;20049;-68
2022/07/16 02:01:35;;;;;;;2.80;2.50;;;;;;;;;;5052363;28;20496;-68
2022/07/16 02:04:02;;;;;;;4.22;2.70;;;;;;;;;;5052290;28;20041;-68
2022/07/16 02:06:28;;;;;;;3.33;2.40;;;;;;;;;;5051421;28;20503;-68
2022/07/16 02:08:55;;;;;;;3.92;2.55;;;;;;;;;;5052128;28;20099;-68
2022/07/16 02:11:21;;;;;;;2.33;2.13;;;;;;;;;;5052185;28;20073;-68
2022/07/16 02:13:48;;;;;;;2.60;2.40;;;;;;;;;;5052195;28;20079;-68
2022/07/16 02:16:14;;;;;;;2.47;2.28;;;;;;;;;;5052393;28;20508;-68
2022/07/16 02:18:41;;;;;;;2.53;2.33;;;;;;;;;;5052496;28;20132;-68
2022/07/16 02:21:07;;;;;;;2.65;2.45;;;;;;;;;;5052037;28;20079;-68
2022/07/16 02:23:34;;;;;;;2.90;2.60;;;;;;;;;;5052367;28;20439;-68
2022/07/16 02:26:00;;;;;;;4.95;2.55;;;;;;;;;;5051968;28;20068;-68
2022/07/16 02:28:27;;;;;;;2.50;2.30;;;;;;;;;;5051026;28;20057;-67
2022/07/16 02:30:53;;;;;;;2.65;2.45;;;;;;;;;;5051833;28;20390;-68
2022/07/16 02:33:20;;;;;;;4.05;2.20;;;;;;;;;;5051367;28;20052;-68
2022/07/16 02:35:47;;;;;;;2.88;2.50;;;;;;;;;;5052066;28;20064;-68
2022/07/16 02:38:14;;;;;;;2.53;2.30;;;;;;;;;;5051750;28;20110;-68
2022/07/16 02:40:41;;;;;;;2.42;2.30;;;;;;;;;;5052084;28;20053;-68
2022/07/16 02:43:08;;;;;;;2.63;2.42;;;;;;;;;;5051693;28;20098;-68
2022/07/16 02:45:37;;;;;;;5.25;2.50;;;;;;;;;;5051647;28;20481;-68
2022/07/16 02:48:04;;;;;;;2.95;2.65;;;;;;;;;;5051526;28;20057;-68
2022/07/16 02:50:30;;;;;;;2.65;2.35;;;;;;;;;;5051848;28;20053;-67
2022/07/16 02:52:57;;;;;;;2.05;1.95;;;;;;;;;;5050300;28;20048;-68
2022/07/16 02:55:23;;;;;;;2.42;2.22;;;;;;;;;;5051908;28;20053;-68
2022/07/16 02:57:50;;;;;;;3.05;2.58;;;;;;;;;;5051565;28;20122;-68
2022/07/16 03:00:17;;;;;;;2.35;2.15;;;;;;;;;;5051433;28;20110;-68
2022/07/16 03:02:43;;;;;;;3.00;2.80;;;;;;;;;;5051845;28;20049;-68
2022/07/16 03:05:10;;;;;;;3.77;2.63;;;;;;;;;;5051685;28;20072;-67
2022/07/16 03:07:37;;;;;;;2.28;2.08;;;;;;;;;;5051552;28;20101;-68
2022/07/16 03:10:04;;;;;;;2.45;2.08;;;;;;;;;;5051689;28;20053;-67
2022/07/16 03:12:30;;;;;;;2.38;2.15;;;;;;;;;;5051748;28;20111;-67
2022/07/16 03:14:58;;;;;;;2.88;2.10;;;;;;;;;;5051209;28;20061;-67
2022/07/16 03:17:24;;;;;;;2.20;2.03;;;;;;;;;;5051381;28;20393;-68
2022/07/16 03:19:51;;;;;;;2.65;2.33;;;;;;;;;;5051134;28;20079;-68
2022/07/16 03:22:18;;;;;;;2.33;2.22;;;;;;;;;;5051559;28;20378;-68
2022/07/16 03:24:44;;;;;;;2.10;2.00;;;;;;;;;;5051172;28;20496;-68
2022/07/16 03:27:12;;;;;;;2.42;2.22;;;;;;;;;;5051076;28;20049;-68
2022/07/16 03:29:38;;;;;;;;;;;;;;;;;;5050435;28;20386;-68
2022/07/16 03:32:05;;;;;;;3.17;2.33;;;;;;;;;;5051322;28;19933;-68
2022/07/16 03:34:32;;;;;;;2.63;2.40;;;;;;;;;;5051150;28;20045;-68
2022/07/16 03:36:59;;;;;;;3.60;3.03;;;;;;;;;;5051121;28;20053;-68
2022/07/16 03:39:25;;;;;;;2.15;1.95;;;;;;;;;;5050913;28;20492;-68
2022/07/16 03:41:52;;;;;;;3.10;2.40;;;;;;;;;;5051065;28;20076;-68
2022/07/16 03:44:18;;;;;;;3.75;2.30;;;;;;;;;;5052027;28;20052;-67
2022/07/16 03:46:45;;;;;;;2.40;2.20;;;;;;;;;;5055123;28;20045;-67
2022/07/16 03:49:11;;;;;;;3.03;2.25;;;;;;;;;;5054904;28;20049;-67
2022/07/16 03:51:38;;;;;;;2.75;2.55;;;;;;;;;;5054841;28;20048;-67
2022/07/16 03:54:05;;;;;;;3.10;2.80;;;;;;;;;;5054900;28;20566;-67
2022/07/16 03:56:32;;;;;;;2.88;2.40;;;;;;;;;;5054909;28;20049;-67
2022/07/16 03:58:59;;;;;;;3.85;3.15;;;;;;;;;;5055026;28;20155;-67
2022/07/16 04:01:25;;;;;;;3.07;2.80;;;;;;;;;;5054980;28;20049;-67
2022/07/16 04:03:52;;;;;;;2.70;2.50;;;;;;;;;;5054978;28;20355;-67
2022/07/16 04:06:19;;;;;;;3.70;3.05;;;;;;;;;;5054954;28;20053;-67
2022/07/16 04:08:47;;;;;;;2.88;2.65;;;;;;;;;;5054831;28;20131;-67
2022/07/16 04:11:13;;;;;;;3.23;2.97;;;;;;;;;;5054841;28;20057;-67
2022/07/16 04:13:41;;;;;;;3.33;2.55;;;;;;;;;;5055061;28;20405;-67
2022/07/16 04:16:08;;;;;;;2.80;2.60;;;;;;;;;;5054790;28;20060;-67
2022/07/16 04:18:36;;;;;;;2.70;2.50;;;;;;;;;;5054500;28;20487;-67
2022/07/16 04:21:04;;;;;;;3.03;2.75;;;;;;;;;;5054455;28;20284;-67
2022/07/16 04:23:30;;;;;;;;;;;;;;;;;;5055008;28;20045;-67
2022/07/16 04:25:57;;;;;;;2.95;2.72;;;;;;;;;;5054170;28;20359;-67
2022/07/16 04:28:23;;;;;;;3.08;2.63;;;;;;;;;;5054332;28;20053;-67
2022/07/16 04:30:50;;;;;;;3.15;2.70;;;;;;;;;;5054272;28;20102;-67
2022/07/16 04:33:16;;;;;;;3.55;2.95;;;;;;;;;;5054188;28;20056;-67
2022/07/16 04:35:43;;;;;;;2.72;2.53;;;;;;;;;;5054295;28;20064;-67
2022/07/16 04:38:10;;;;;;;2.65;2.45;;;;;;;;;;5054027;28;20064;-67
2022/07/16 04:40:36;;;;;;;4.25;2.97;;;;;;;;;;5054269;28;20045;-67
2022/07/16 04:43:03;;;;;;;3.60;2.35;;;;;;;;;;5054119;28;20049;-67
2022/07/16 04:45:29;;;;;;;3.45;2.80;;;;;;;;;;5054201;28;20049;-67
2022/07/16 04:47:56;;;;;;;4.68;3.08;;;;;;;;;;5054109;28;20048;-67
2022/07/16 04:50:22;;;;;;;3.97;2.67;;;;;;;;;;5053907;28;20045;-67
2022/07/16 04:52:53;;;;;;;3.35;2.75;;;;;;;;;;5054072;28;20045;-67
2022/07/16 04:55:19;;;;;;;3.58;2.95;;;;;;;;;;5053553;28;20049;-67
2022/07/16 04:57:46;;;;;;;3.00;2.75;;;;;;;;;;5053169;28;20053;-67
2022/07/16 05:00:13;;;;;;;3.42;2.88;;;;;;;;;;5053873;28;20045;-67
2022/07/16 05:02:57;;;;;;;3.42;2.88;;;;;;;;;;5053659;28;20762;-67
2022/07/16 05:05:25;;;;;;;3.22;2.47;;;;;;;;;;5053939;28;20386;-68
2022/07/16 05:07:52;;;;;;;4.50;2.92;;;;;;;;;;5053716;28;20049;-67
2022/07/16 05:10:18;;;;;;;3.38;3.08;;;;;;;;;;5053698;28;20289;-67
2022/07/16 05:12:45;;;;;;;3.20;2.72;;;;;;;;;;5053494;28;20053;-68
2022/07/16 05:15:11;;;;;;;2.70;2.50;;;;;;;;;;5053343;28;20837;-67
2022/07/16 05:17:38;;;;;;;2.80;2.50;;;;;;;;;;5053207;28;20049;-67
2022/07/16 05:20:05;;;;;;;3.92;2.92;;;;;;;;;;5053691;28;20048;-68
2022/07/16 05:22:32;;;;;;;4.18;3.03;;;;;;;;;;5053663;28;20457;-68
2022/07/16 05:24:58;;;;;;;5.68;3.10;;;;;;;;;;5053344;28;20103;-68
2022/07/16 05:27:25;;;;;;;3.70;3.00;;;;;;;;;;5053459;28;20045;-68
2022/07/16 05:29:51;;;;;;;3.25;2.83;;;;;;;;;;5053145;28;20084;-70
2022/07/16 05:32:17;;;;;;;3.08;2.78;;;;;;;;;;5052984;28;20118;-68
2022/07/16 05:34:44;;;;;;;3.28;2.92;;;;;;;;;;5053309;28;20500;-68
2022/07/16 05:37:10;;;;;;;4.47;3.63;;;;;;;;;;5053079;28;20107;-68
2022/07/16 05:39:37;;;;;;;3.20;2.90;;;;;;;;;;5052855;28;20053;-68
2022/07/16 05:42:03;;;;;;;3.28;2.97;;;;;;;;;;5052793;28;20489;-68
2022/07/16 05:44:30;;;;;;;6.00;3.10;;;;;;;;;;5052843;28;20514;-68
2022/07/16 05:46:56;;;;;;;4.50;3.28;;;;;;;;;;5052607;28;20053;-71
2022/07/16 05:49:23;;;;;;;3.58;3.28;;;;;;;;;;5052994;28;20049;-68
2022/07/16 05:51:49;;;;;;;3.63;3.33;;;;;;;;;;5052665;28;20049;-71
2022/07/16 05:54:16;;;;;;;3.00;2.80;;;;;;;;;;5051449;28;20562;-67
2022/07/16 05:56:42;;;;;;;3.30;3.00;;;;;;;;;;5052825;28;20100;-67
2022/07/16 05:59:09;;;;;;;3.60;3.30;;;;;;;;;;5052456;28;20056;-67
2022/07/16 06:01:35;;;;;;;3.92;3.15;;;;;;;;;;5052613;28;20049;-66
2022/07/16 06:04:02;;;;;;;4.13;2.97;;;;;;;;;;5052334;28;20049;-68
2022/07/16 06:06:28;;;;;;;5.20;3.23;;;;;;;;;;5052569;28;20091;-67
2022/07/16 06:08:55;;;;;;;4.38;3.05;;;;;;;;;;5052374;28;20052;-67
2022/07/16 06:11:21;;;;;;;3.03;2.83;;;;;;;;;;5052385;28;20487;-67
2022/07/16 06:13:48;;;;;;;3.75;3.00;;;;;;;;;;5052520;28;20455;-67
2022/07/16 06:16:14;;;;;;;3.90;3.53;;;;;;;;;;5052269;28;20152;-67
2022/07/16 06:18:44;;;;;;;3.23;2.93;;;;;;;;;;5052008;28;20041;-67
2022/07/16 06:21:10;;;;;;;3.60;3.10;;;;;;;;;;5052425;28;20084;-67
2022/07/16 06:23:37;;;;;;;3.80;3.33;;;;;;;;;;5052269;28;20041;-67
2022/07/16 06:26:03;;;;;;;3.00;2.72;;;;;;;;;;5051699;28;20049;-67
2022/07/16 06:28:30;;;;;;;3.08;2.80;;;;;;;;;;5045625;28;20049;-67
2022/07/16 06:30:56;;;;;;;4.85;3.33;;;;;;;;;;5041340;28;20049;-67
2022/07/16 06:33:23;;;;;;;2.95;2.70;;;;;;;;;;5051949;28;20048;-68
2022/07/16 06:35:49;;;;;;;3.05;2.60;;;;;;;;;;5042396;28;20049;-67
2022/07/16 06:38:15;;;;;;;3.30;2.90;;;;;;;;;;5031291;28;20065;-67
2022/07/16 06:40:43;;;;;;;4.32;3.20;;;;;;;;;;5031588;28;20041;-67
2022/07/16 06:43:10;;;;;;;3.00;2.72;;;;;;;;;;5031157;28;20497;-67
2022/07/16 06:45:37;;;;;;;3.53;3.23;;;;;;;;;;5041155;28;20095;-67
2022/07/16 06:48:03;;;;;;;3.40;2.80;;;;;;;;;;5050277;28;20045;-67
2022/07/16 06:50:30;;;;;;;4.67;2.70;;;;;;;;;;5031166;28;20056;-67
2022/07/16 06:52:56;;;;;;;4.63;3.30;;;;;;;;;;5031507;28;20053;-67
2022/07/16 06:55:23;;;;;;;3.22;2.78;;;;;;;;;;5045081;28;20111;-68
2022/07/16 06:57:49;;;;;;;2.95;2.50;;;;;;;;;;5038819;28;20464;-67
2022/07/16 07:00:16;;;;;;;3.53;2.50;;;;;;;;;;5031386;28;20099;-67
2022/07/16 07:02:42;;;;;;;4.60;2.72;;;;;;;;;;5031275;28;20045;-67
2022/07/16 07:05:13;;;;;;;2.47;2.22;;;;;;;;;;5031462;28;20061;-67
2022/07/16 07:07:40;;;;;;;2.80;2.40;;;;;;;;;;5045179;28;20045;-68
2022/07/16 07:10:06;;;;;;;2.38;2.17;;;;;;;;;;5051401;28;20045;-67
2022/07/16 07:12:34;;;;;;;2.20;2.00;;;;;;;;;;5051466;28;20094;-68
2022/07/16 07:15:00;;;;;;;2.53;2.33;;;;;;;;;;5050018;28;20053;-68
2022/07/16 07:17:27;;;;;;;3.20;2.47;;;;;;;;;;5051853;28;20049;-67
2022/07/16 07:19:53;;;;;;;2.22;2.00;;;;;;;;;;5053080;28;20094;-66
2022/07/16 07:22:20;;;;;;;2.03;1.90;;;;;;;;;;5055614;28;20799;-67
2022/07/16 07:24:46;;;;;;;2.73;1.90;;;;;;;;;;5037497;28;20076;-65
2022/07/16 07:27:13;;;;;;;;;;;;;;;;;;5039058;28;20111;-66
2022/07/16 07:29:40;;;;;;;1.88;1.75;;;;;;;;;;5035002;28;19921;-66
2022/07/16 07:32:06;;;;;;;1.73;1.40;;;;;;;;;;5034865;28;20103;-66
2022/07/16 07:34:33;;;;;;;2.23;1.47;;;;;;;;;;5035228;28;20053;-65
2022/07/16 07:36:59;;;;;;;1.80;1.53;;;;;;;;;;5034982;28;20103;-65
2022/07/16 07:39:26;;;;;;;2.13;1.40;;;;;;;;;;5034100;28;20115;-65
2022/07/16 07:41:52;;;;;;;2.10;1.50;;;;;;;;;;5035002;28;20497;-65
2022/07/16 07:44:19;;;;;;;2.83;1.40;;;;;;;;;;5036639;28;20045;-65
2022/07/16 07:46:45;;;;;;;1.30;1.20;;;;;;;;;;5047445;28;20041;-65
2022/07/16 07:49:12;;;;;;;2.97;1.70;;;;;;;;;;5048769;28;20045;-70
2022/07/16 07:51:38;;;;;;;1.60;1.30;;;;;;;;;;5045202;28;20472;-70
2022/07/16 07:54:05;;;;;;;2.10;1.35;;;;;;;;;;5034778;28;20057;-67
2022/07/16 07:56:32;;;;;;;1.77;1.42;;;;;;;;;;5034636;28;20459;-67
2022/07/16 07:58:58;;;;;;;2.50;1.60;;;;;;;;;;5034590;28;20053;-68
2022/07/16 08:01:24;;;;;;;1.90;1.30;;;;;;;;;;5047054;28;20111;-68
2022/07/16 08:04:01;;;;;;;;;;;;;;;;;;5055404;28;20127;-67
2022/07/16 08:06:28;;;;;;;;;;;;;;;;;;5055108;28;19921;-67
2022/07/16 08:08:54;;;;;;;1.27;1.17;;;;;;;;;;5054848;28;19971;-67
2022/07/16 08:11:21;;;;;;;1.55;1.17;;;;;;;;;;5043553;28;20041;-66
2022/07/16 08:13:47;;;;;;;;;;;;;;;;;;5043609;28;20049;-67
2022/07/16 08:16:34;;;;;;;1.40;1.20;;;;;;;;;;5054709;28;20022;-67
2022/07/16 08:19:00;;;;;;;2.15;1.35;;;;;;;;;;5050398;28;20482;-68
2022/07/16 08:21:27;;;;;;;;;;;;;;;;;;5035117;28;20049;-68
2022/07/16 08:26:43;;;;;;;1.58;1.48;;;;;;;;;;5031669;28;20379;-69
2022/07/16 08:29:09;;;;;;;1.33;1.15;;;;;;;;;;5042024;28;20061;-68
2022/07/16 08:31:36;;;;;;;1.50;1.25;;;;;;;;;;5034862;28;20050;-68
2022/07/16 08:34:02;;;;;;;1.08;1.05;;;;;;;;;;5045945;28;20053;-67
2022/07/16 08:36:29;;;;;;;1.58;1.05;;;;;;;;;;5051799;28;20122;-67
2022/07/16 08:38:55;;;;;;;1.58;1.27;;;;;;;;;;5041691;28;20099;-67
2022/07/16 08:41:22;;;;;;;1.40;1.30;;;;;;;;;;5054183;28;20459;-67
2022/07/16 08:43:49;;;;;;;1.20;1.10;;;;;;;;;;5053709;28;20500;-67
2022/07/16 08:46:19;;;;;;;4.13;1.33;;;;;;;;;;5037101;28;20528;-67
2022/07/16 08:48:46;;;;;;;1.00;0.88;;;;;;;;;;5043823;28;20103;-62
2022/07/16 08:51:13;;;;;;;1.23;1.20;;;;;;;;;;5053966;28;20083;-62
2022/07/16 08:53:40;;;;;;;1.98;1.30;;;;;;;;;;5036128;28;20048;-62
2022/07/16 08:56:07;;;;;;;1.55;1.20;;;;;;;;;;5031584;28;20551;-61
2022/07/16 08:58:33;;;;;;;;;;;;;;;;;;5032961;28;20049;-61
2022/07/16 09:01:00;;;;;;;2.03;1.10;;;;;;;;;;5032809;28;19975;-61
2022/07/16 09:03:27;;;;;;;1.65;1.13;;;;;;;;;;5032646;28;20049;-62
2022/07/16 09:05:54;;;;;;;;;;;;;;;;;;5033785;28;20095;-62
2022/07/16 09:08:21;;;;;;;1.70;1.17;;;;;;;;;;5033114;28;19925;-62
2022/07/16 09:10:47;;;;;;;2.08;1.38;;;;;;;;;;5032264;28;20575;-61
2022/07/16 09:13:14;;;;;;;1.50;1.25;;;;;;;;;;5032882;28;20058;-62
2022/07/16 09:15:42;;;;;;;1.20;1.10;;;;;;;;;;5033537;28;20057;-62
2022/07/16 09:18:17;;;;;;;1.25;1.15;;;;;;;;;;5019876;28;20053;-61
2022/07/16 09:20:46;;;;;;;1.35;1.10;;;;;;;;;;5032707;28;20228;-62
2022/07/16 09:23:20;;;;;;;2.00;1.17;;;;;;;;;;5021555;28;20045;-62
2022/07/16 09:25:56;;;;;;;2.28;1.20;;;;;;;;;;5030754;28;20046;-62
2022/07/16 09:28:23;;;;;;;1.53;1.33;;;;;;;;;;5033181;28;20057;-62
2022/07/16 09:30:50;;;;;;;1.30;1.20;;;;;;;;;;5031706;28;20486;-62
2022/07/16 09:33:18;;;;;;;1.10;1.10;;;;;;;;;;5032688;28;20108;-62
2022/07/16 09:35:45;;;;;;;1.48;1.20;;;;;;;;;;5032907;28;20127;-62
2022/07/16 09:38:12;;;;;;;1.75;1.23;;;;;;;;;;5032585;28;20058;-62
2022/07/16 09:40:47;;;;;;;1.25;1.05;;;;;;;;;;5018061;28;20109;-62
2022/07/16 09:43:13;;;;;;;1.10;1.10;;;;;;;;;;5032262;28;20151;-62
2022/07/16 09:45:41;;;;;;;1.50;1.13;;;;;;;;;;5029682;28;20103;-62
2022/07/16 09:48:21;;;;;;;1.45;1.10;;;;;;;;;;5032648;28;20042;-62
2022/07/16 09:50:47;;;;;;;1.10;1.10;;;;;;;;;;5021203;28;20188;-62
2022/07/16 09:53:19;;;;;;;2.17;1.27;;;;;;;;;;5045194;28;20095;-62
2022/07/16 09:55:54;;;;;;;1.20;1.10;;;;;;;;;;5052383;28;20103;-62
2022/07/16 09:58:21;;;;;;;1.48;1.15;;;;;;;;;;5052000;28;20049;-62
2022/07/16 10:00:48;;;;;;;1.42;1.15;;;;;;;;;;5052277;28;20053;-62
2022/07/16 10:03:14;;;;;;;1.20;1.10;;;;;;;;;;5052260;28;20489;-62
2022/07/16 10:05:41;;;;;;;1.92;1.13;;;;;;;;;;5052008;28;20136;-62
2022/07/16 10:08:08;;;;;;;1.30;1.20;;;;;;;;;;5037564;28;20091;-62
2022/07/16 10:10:34;;;;;;;1.00;1.00;;;;;;;;;;5034708;28;20049;-62
2022/07/16 10:13:01;;;;;;;2.28;1.15;;;;;;;;;;5039505;28;20123;-62
2022/07/16 10:15:28;;;;;;;1.42;1.20;;;;;;;;;;5031226;28;20056;-62
2022/07/16 10:17:54;;;;;;;1.20;1.10;;;;;;;;;;5032182;28;20114;-63
2022/07/16 10:20:21;;;;;;;1.63;1.40;;;;;;;;;;5028825;28;20095;-63
2022/07/16 10:22:48;;;;;;;1.40;1.30;;;;;;;;;;5031176;28;20041;-63
2022/07/16 10:25:19;;;;;;;1.65;1.50;;;;;;;;;;5030884;28;20163;-62
2022/07/16 10:27:46;;;;;;;4.18;1.40;;;;;;;;;;5045638;28;20052;-62
2022/07/16 10:30:13;;;;;;;3.83;1.20;;;;;;;;;;5051235;28;20064;-62
2022/07/16 10:33:17;;;;;;;1.45;1.35;;;;;;;;;;5050956;28;20065;-62
2022/07/16 10:35:45;;;;;;;1.40;1.20;;;;;;;;;;5048663;28;20052;-62
2022/07/16 10:38:20;;;;;;;1.25;1.17;;;;;;;;;;5050390;28;20144;-63
2022/07/16 10:41:05;;;;;;;1.48;1.38;;;;;;;;;;5051553;28;20053;-62
2022/07/16 10:43:32;;;;;;;1.35;1.23;;;;;;;;;;5051476;28;20045;-62
2022/07/16 10:46:00;;;;;;;2.17;1.50;;;;;;;;;;5051528;28;20045;-63
2022/07/16 10:48:28;;;;;;;1.27;1.17;;;;;;;;;;5051153;28;20500;-62
2022/07/16 10:51:13;;;;;;;1.40;1.30;;;;;;;;;;5051099;28;20079;-62
2022/07/16 10:53:58;;;;;;;1.35;1.20;;;;;;;;;;5048732;28;20049;-62
2022/07/16 10:56:50;;;;;;;1.35;1.25;;;;;;;;;;5051239;28;20099;-62
2022/07/16 10:59:28;;;;;;;1.42;1.25;;;;;;;;;;5050641;28;20103;-62
2022/07/16 11:01:56;;;;;;;1.65;1.38;;;;;;;;;;5051011;28;20061;-62
2022/07/16 11:04:27;;;;;;;1.85;1.30;;;;;;;;;;5050969;28;20578;-62
2022/07/16 11:06:55;;;;;;;1.73;1.63;;;;;;;;;;5037252;28;20052;-62
2022/07/16 11:09:26;;;;;;;1.45;1.35;;;;;;;;;;5040124;28;20401;-62
2022/07/16 11:11:54;;;;;;;1.58;1.42;;;;;;;;;;5050208;28;20049;-61
2022/07/16 11:14:27;;;;;;;1.30;1.20;;;;;;;;;;5051836;28;20057;-61
2022/07/16 11:16:53;;;;;;;2.03;1.60;;;;;;;;;;5050486;28;20041;-62
2022/07/16 11:19:20;;;;;;;1.67;1.58;;;;;;;;;;5051583;28;20052;-62
2022/07/16 11:22:01;;;;;;;1.50;1.40;;;;;;;;;;5049640;28;20053;-62
2022/07/16 11:24:28;;;;;;;2.67;1.27;;;;;;;;;;5051616;28;20462;-62
2022/07/16 11:26:55;;;;;;;2.28;1.60;;;;;;;;;;5044909;28;20101;-62
2022/07/16 11:29:23;;;;;;;1.50;1.40;;;;;;;;;;5039757;28;20443;-62
2022/07/16 11:31:50;;;;;;;1.77;1.35;;;;;;;;;;5050740;28;20049;-62
2022/07/16 11:34:23;;;;;;;1.52;1.42;;;;;;;;;;5051112;28;20061;-62
2022/07/16 11:36:52;;;;;;;1.80;1.70;;;;;;;;;;5051027;28;20045;-62
2022/07/16 11:39:19;;;;;;;1.70;1.52;;;;;;;;;;5033422;28;20057;-63
2022/07/16 11:41:47;;;;;;;1.10;1.08;;;;;;;;;;5030360;28;20041;-61
2022/07/16 11:44:14;;;;;;;1.63;1.52;;;;;;;;;;5044973;28;20072;-62
2022/07/16 11:46:45;;;;;;;1.73;1.63;;;;;;;;;;5048880;28;20053;-63
2022/07/16 11:49:20;;;;;;;1.30;1.20;;;;;;;;;;5037818;28;20085;-62
2022/07/16 11:51:46;;;;;;;1.93;1.37;;;;;;;;;;5030588;28;20448;-62
2022/07/16 11:54:12;;;;;;;1.50;1.40;;;;;;;;;;5030521;28;20386;-62
2022/07/16 11:56:40;;;;;;;3.15;1.80;;;;;;;;;;5030163;28;20053;-61
2022/07/16 11:59:16;;;;;;;1.55;1.45;;;;;;;;;;5030388;28;20084;-65
2022/07/16 12:01:42;;;;;;;1.60;1.50;;;;;;;;;;5049221;28;20041;-62
2022/07/16 12:04:09;;;;;;;1.48;1.38;;;;;;;;;;5050694;28;20374;-62
2022/07/16 12:06:36;;;;;;;2.53;1.50;;;;;;;;;;5053138;28;20041;-63
2022/07/16 12:09:03;;;;;;;2.05;1.80;;;;;;;;;;5054099;28;20049;-63
2022/07/16 12:11:33;;;;;;;1.40;1.30;;;;;;;;;;5049711;28;20460;-62
2022/07/16 12:14:01;;;;;;;1.92;1.70;;;;;;;;;;5033995;28;20521;-63
2022/07/16 12:16:29;;;;;;;1.65;1.52;;;;;;;;;;5036943;28;20135;-62
2022/07/16 12:19:01;;;;;;;1.77;1.67;;;;;;;;;;5034047;28;20426;-62
2022/07/16 12:21:28;;;;;;;1.50;1.40;;;;;;;;;;5047816;28;20574;-62
2022/07/16 12:23:55;;;;;;;1.50;1.40;;;;;;;;;;5043836;28;20128;-62
2022/07/16 12:26:32;;;;;;;1.70;1.60;;;;;;;;;;5044786;28;20061;-63
2022/07/16 12:28:59;;;;;;;1.52;1.45;;;;;;;;;;5053708;28;20043;-63
2022/07/16 12:31:27;;;;;;;2.42;1.77;;;;;;;;;;5036678;28;20501;-62
2022/07/16 12:33:53;;;;;;;1.75;1.65;;;;;;;;;;5033495;28;20172;-62
2022/07/16 12:36:20;;;;;;;1.95;1.75;;;;;;;;;;5030683;28;20056;-62
2022/07/16 12:38:55;;;;;;;1.67;1.58;;;;;;;;;;5039528;28;20109;-62
2022/07/16 12:41:34;;;;;;;3.78;1.98;;;;;;;;;;5054029;28;20052;-61
2022/07/16 12:44:02;;;;;;;1.65;1.55;;;;;;;;;;5039840;28;20095;-62
2022/07/16 12:46:30;;;;;;;4.47;2.03;;;;;;;;;;5043715;28;20098;-63
2022/07/16 12:49:04;;;;;;;1.70;1.40;;;;;;;;;;5032498;28;20124;-62
2022/07/16 12:51:33;;;;;;;1.90;1.80;;;;;;;;;;5032590;28;20053;-63
2022/07/16 12:54:00;;;;;;;1.92;1.65;;;;;;;;;;5046300;28;20048;-63
2022/07/16 12:59:14;;;;;;;2.00;1.90;;;;;;;;;;5036483;28;20195;-63
2022/07/16 13:01:41;;;;;;;1.60;1.50;;;;;;;;;;5053627;28;20060;-62
2022/07/16 13:04:08;;;;;;;1.98;1.88;;;;;;;;;;5053708;28;20488;-63
2022/07/16 13:06:35;;;;;;;2.38;2.15;;;;;;;;;;5053872;28;20045;-62
2022/07/16 13:09:06;;;;;;;1.98;1.88;;;;;;;;;;5053599;28;20053;-62
2022/07/16 13:11:33;;;;;;;2.03;1.90;;;;;;;;;;5047263;28;20053;-63
2022/07/16 13:13:59;;;;;;;2.35;1.92;;;;;;;;;;5034494;28;20107;-63
2022/07/16 13:16:26;;;;;;;1.98;1.88;;;;;;;;;;5053086;28;20055;-63
2022/07/16 13:18:55;;;;;;;2.13;1.90;;;;;;;;;;5046700;28;20052;-62
2022/07/16 13:21:25;;;;;;;1.95;1.85;;;;;;;;;;5040030;28;20085;-65
2022/07/16 13:23:53;;;;;;;3.92;2.15;;;;;;;;;;5053551;28;20420;-63
2022/07/16 13:26:21;;;;;;;2.35;1.92;;;;;;;;;;5052288;28;20135;-70
2022/07/16 13:28:48;;;;;;;2.35;2.10;;;;;;;;;;5033068;28;20394;-70
2022/07/16 13:31:14;;;;;;;3.22;2.30;;;;;;;;;;5033121;28;20409;-71
2022/07/16 13:33:41;;;;;;;2.30;2.15;;;;;;;;;;5053349;28;20048;-71
2022/07/16 13:36:09;;;;;;;2.30;2.10;;;;;;;;;;5051296;28;20067;-71
2022/07/16 13:38:37;;;;;;;1.92;1.83;;;;;;;;;;5050117;28;20060;-71
2022/07/16 13:41:04;;;;;;;2.13;2.03;;;;;;;;;;5052878;28;20661;-71
2022/07/16 13:43:30;;;;;;;2.38;2.17;;;;;;;;;;5051605;28;20444;-71
2022/07/16 13:45:57;;;;;;;2.05;1.95;;;;;;;;;;5052564;28;20052;-71
2022/07/16 13:48:23;;;;;;;2.47;2.28;;;;;;;;;;5052872;28;20563;-71
2022/07/16 13:50:50;;;;;;;2.55;2.45;;;;;;;;;;5052586;28;20057;-71
2022/07/16 13:53:16;;;;;;;2.72;2.53;;;;;;;;;;5052970;28;20045;-71
2022/07/16 13:55:43;;;;;;;2.33;2.22;;;;;;;;;;5052721;28;20087;-71
2022/07/16 13:58:18;;;;;;;2.40;2.30;;;;;;;;;;5052819;28;20094;-71
2022/07/16 14:00:55;;;;;;;2.50;2.30;;;;;;;;;;5051649;28;20049;-71
2022/07/16 14:03:26;;;;;;;2.58;2.38;;;;;;;;;;5052615;28;20096;-71
2022/07/16 14:05:54;;;;;;;2.50;2.30;;;;;;;;;;5052653;28;20045;-71
2022/07/16 14:08:21;;;;;;;3.00;2.80;;;;;;;;;;5052737;28;20045;-71
2022/07/16 14:10:47;;;;;;;2.40;2.30;;;;;;;;;;5052434;28;20045;-71
2022/07/16 14:13:21;;;;;;;2.67;2.47;;;;;;;;;;5052635;28;20084;-71
2022/07/16 14:15:49;;;;;;;2.60;2.47;;;;;;;;;;5052389;28;20408;-71
2022/07/16 14:18:15;;;;;;;2.58;2.47;;;;;;;;;;5050385;28;20048;-71
2022/07/16 14:20:42;;;;;;;2.20;2.10;;;;;;;;;;5052145;28;20575;-69
2022/07/16 14:23:09;;;;;;;2.47;2.35;;;;;;;;;;5052157;28;20110;-69
2022/07/16 14:25:36;;;;;;;2.63;2.42;;;;;;;;;;5052148;28;20567;-68
2022/07/16 14:28:06;;;;;;;2.05;1.95;;;;;;;;;;5052357;28;20091;-69
2022/07/16 14:30:37;;;;;;;2.33;2.22;;;;;;;;;;5051877;28;20041;-67
2022/07/16 14:33:04;;;;;;;2.47;2.28;;;;;;;;;;5037561;28;20044;-68
2022/07/16 14:35:31;;;;;;;4.25;2.38;;;;;;;;;;5047864;28;20080;-67
2022/07/16 14:37:57;;;;;;;2.35;2.25;;;;;;;;;;5039220;28;20397;-67
2022/07/16 14:40:24;;;;;;;2.80;2.60;;;;;;;;;;5052216;28;20110;-68
2022/07/16 14:42:51;;;;;;;2.88;2.53;;;;;;;;;;5051943;28;20045;-69
2022/07/16 14:45:19;;;;;;;2.80;2.60;;;;;;;;;;5041736;28;20041;-68
2022/07/16 14:47:46;;;;;;;3.50;2.35;;;;;;;;;;5031601;28;20099;-71
2022/07/16 14:50:13;;;;;;;3.10;2.70;;;;;;;;;;5029878;28;20103;-69
2022/07/16 14:52:42;;;;;;;2.70;2.45;;;;;;;;;;5038770;28;20044;-67
2022/07/16 14:55:10;;;;;;;2.80;2.60;;;;;;;;;;5038479;28;20053;-69
2022/07/16 14:57:37;;;;;;;2.55;2.42;;;;;;;;;;5036772;28;20064;-68
2022/07/16 15:00:04;;;;;;;2.60;2.40;;;;;;;;;;5030963;28;20096;-68